createdAt,value
2023-03-03T00:00:55.572Z,14.60
2023-03-03T00:03:24.523Z,14.07
2023-03-03T00:05:52.135Z,16.05
2023-03-03T00:08:19.998Z,14.70
2023-03-03T00:10:47.208Z,14.90
2023-03-03T00:13:20.858Z,14.88
2023-03-03T00:15:48.166Z,16.00
2023-03-03T00:18:36.039Z,15.02
2023-03-03T00:21:11.212Z,15.63
2023-03-03T00:26:18.226Z,15.85
2023-03-03T00:28:47.849Z,15.57
2023-03-03T00:31:31.709Z,16.40
2023-03-03T00:34:17.790Z,16.70
2023-03-03T00:36:44.746Z,15.10
2023-03-03T00:39:44.546Z,16.00
2023-03-03T00:42:15.966Z,15.32
2023-03-03T00:44:46.505Z,15.88
2023-03-03T00:47:15.996Z,16.48
2023-03-03T00:49:43.269Z,15.50
2023-03-03T00:52:20.921Z,17.38
2023-03-03T00:54:47.843Z,16.13
2023-03-03T00:57:14.485Z,16.48
2023-03-03T00:59:41.316Z,16.48
2023-03-03T01:02:07.975Z,16.60
2023-03-03T01:04:34.537Z,17.25
2023-03-03T01:07:01.190Z,16.67
2023-03-03T01:09:27.794Z,17.13
2023-03-03T01:25:43.300Z,17.85
2023-03-03T01:28:10.163Z,18.10
2023-03-03T01:30:36.813Z,18.55
2023-03-03T01:33:03.577Z,20.23
2023-03-03T01:35:30.732Z,18.95
2023-03-03T01:37:58.177Z,19.33
2023-03-03T01:40:27.821Z,19.23
2023-03-03T01:42:54.470Z,21.02
2023-03-03T01:45:24.709Z,20.77
2023-03-03T01:48:01.429Z,21.10
2023-03-03T01:50:36.745Z,20.85
2023-03-03T01:53:06.371Z,20.30
2023-03-03T01:55:41.172Z,23.20
2023-03-03T01:58:18.388Z,22.20
2023-03-03T02:00:50.522Z,21.15
2023-03-03T02:03:19.868Z,21.17
2023-03-03T02:05:46.889Z,22.98
2023-03-03T02:08:18.907Z,23.73
2023-03-03T02:10:47.454Z,23.13
2023-03-03T02:13:14.336Z,23.73
2023-03-03T02:15:40.983Z,23.50
2023-03-03T02:18:12.424Z,23.90
2023-03-03T02:20:53.854Z,23.65
2023-03-03T02:23:35.395Z,23.67
2023-03-03T02:26:11.981Z,24.30
2023-03-03T02:28:39.852Z,23.52
2023-03-03T02:31:13.044Z,26.73
2023-03-03T02:33:45.079Z,24.98
2023-03-03T02:36:16.831Z,24.13
2023-03-03T02:39:21.372Z,24.15
2023-03-03T02:42:00.171Z,23.25
2023-03-03T02:44:28.953Z,25.58
2023-03-03T02:46:56.547Z,25.25
2023-03-03T02:49:32.339Z,24.02
2023-03-03T02:52:00.369Z,25.45
2023-03-03T02:54:30.107Z,25.30
2023-03-03T02:56:57.999Z,26.02
2023-03-03T02:59:24.540Z,25.58
2023-03-03T03:01:51.769Z,26.40
2023-03-03T03:04:21.315Z,26.13
2023-03-03T03:06:48.509Z,27.05
2023-03-03T03:09:16.249Z,26.23
2023-03-03T03:11:43.202Z,27.92
2023-03-03T03:14:12.016Z,28.38
2023-03-03T03:16:39.110Z,28.02
2023-03-03T03:19:06.810Z,27.50
2023-03-03T03:21:33.725Z,28.45
2023-03-03T03:24:00.500Z,28.42
2023-03-03T03:26:27.261Z,28.15
2023-03-03T03:28:53.981Z,28.50
2023-03-03T03:31:21.845Z,28.25
2023-03-03T03:33:49.095Z,29.00
2023-03-03T03:36:16.654Z,29.42
2023-03-03T03:38:43.559Z,30.33
2023-03-03T03:41:12.768Z,28.10
2023-03-03T03:43:39.912Z,30.27
2023-03-03T03:46:07.370Z,29.13
2023-03-03T03:48:34.291Z,30.70
2023-03-03T03:51:00.959Z,29.20
2023-03-03T03:53:27.616Z,28.83
2023-03-03T03:55:54.347Z,31.00
2023-03-03T03:58:21.203Z,32.97
2023-03-03T04:00:48.478Z,31.35
2023-03-03T04:03:15.183Z,31.10
2023-03-03T04:05:42.489Z,30.48
2023-03-03T04:08:09.570Z,31.15
2023-03-03T04:10:36.550Z,30.40
2023-03-03T04:13:03.206Z,32.10
2023-03-03T04:15:29.796Z,31.83
2023-03-03T04:17:56.468Z,31.77
2023-03-03T04:20:23.151Z,33.38
2023-03-03T04:22:49.800Z,34.80
2023-03-03T04:25:17.456Z,32.08
2023-03-03T04:27:44.735Z,33.30
2023-03-03T04:30:12.771Z,33.65
2023-03-03T04:32:39.404Z,34.92
2023-03-03T04:35:08.511Z,33.75
2023-03-03T04:37:37.504Z,33.10
2023-03-03T04:40:08.332Z,35.38
2023-03-03T04:42:35.438Z,33.97
2023-03-03T04:45:02.812Z,33.67
2023-03-03T04:47:29.380Z,33.60
2023-03-03T04:49:55.953Z,35.22
2023-03-03T04:52:22.539Z,33.97
2023-03-03T04:54:49.120Z,35.10
2023-03-03T04:57:15.746Z,34.17
2023-03-03T04:59:42.327Z,37.10
2023-03-03T05:02:09.046Z,36.30
2023-03-03T05:04:35.724Z,36.05
2023-03-03T05:07:02.334Z,35.55
2023-03-03T05:09:29.000Z,35.78
2023-03-03T05:11:55.700Z,38.55
2023-03-03T05:14:22.442Z,36.40
2023-03-03T05:16:49.128Z,36.97
2023-03-03T05:19:15.765Z,35.20
2023-03-03T05:21:42.551Z,35.55
2023-03-03T05:24:10.683Z,37.10
2023-03-03T05:26:37.408Z,36.65
2023-03-03T05:29:04.530Z,35.45
2023-03-03T05:31:31.144Z,36.83
2023-03-03T05:33:57.857Z,38.30
2023-03-03T05:36:25.269Z,36.92
2023-03-03T05:38:52.207Z,38.70
2023-03-03T05:41:18.982Z,37.05
2023-03-03T05:43:45.741Z,35.78
2023-03-03T05:46:12.528Z,36.58
2023-03-03T05:48:39.366Z,39.75
2023-03-03T05:51:06.097Z,39.30
2023-03-03T05:53:34.571Z,36.67
2023-03-03T05:56:01.165Z,37.03
2023-03-03T05:58:28.352Z,37.10
2023-03-03T06:00:55.252Z,36.25
2023-03-03T06:03:21.915Z,39.83
2023-03-03T06:05:48.724Z,37.72
2023-03-03T06:08:15.370Z,36.80
2023-03-03T06:10:42.019Z,36.30
2023-03-03T06:13:08.602Z,38.50
2023-03-03T06:15:35.312Z,36.13
2023-03-03T06:18:02.016Z,38.30
2023-03-03T06:20:28.712Z,38.30
2023-03-03T06:22:55.372Z,36.35
2023-03-03T06:25:21.965Z,38.10
2023-03-03T06:27:48.470Z,35.40
2023-03-03T06:30:15.373Z,36.20
2023-03-03T06:32:42.242Z,38.80
2023-03-03T06:35:08.996Z,37.13
2023-03-03T06:37:35.668Z,37.30
2023-03-03T06:40:03.823Z,36.05
2023-03-03T06:42:30.628Z,37.95
2023-03-03T06:44:57.261Z,35.58
2023-03-03T06:47:23.862Z,37.15
2023-03-03T06:49:50.491Z,35.45
2023-03-03T06:52:25.386Z,34.80
2023-03-03T06:54:55.274Z,35.42
2023-03-03T06:57:33.366Z,36.22
2023-03-03T07:00:20.151Z,34.83
2023-03-03T07:03:12.200Z,36.08
2023-03-03T07:05:38.934Z,35.65
2023-03-03T07:08:17.011Z,37.03
2023-03-03T07:10:45.040Z,38.15
2023-03-03T07:13:19.394Z,38.53
2023-03-03T07:15:47.961Z,38.90
2023-03-03T07:18:37.875Z,38.85
2023-03-03T07:21:30.388Z,38.70
2023-03-03T07:23:59.109Z,39.40
2023-03-03T07:26:30.527Z,41.25
2023-03-03T07:29:04.006Z,38.92
2023-03-03T07:31:35.499Z,40.78
2023-03-03T07:34:05.826Z,40.83
2023-03-03T07:36:37.486Z,39.38
2023-03-03T07:39:33.855Z,40.47
2023-03-03T07:42:23.632Z,39.13
2023-03-03T07:44:52.291Z,37.08
2023-03-03T07:47:26.183Z,38.45
2023-03-03T07:49:55.552Z,36.10
2023-03-03T07:52:30.575Z,36.72
2023-03-03T07:55:00.822Z,35.03
2023-03-03T07:57:36.990Z,34.45
2023-03-03T08:00:16.489Z,32.92
2023-03-03T08:03:00.375Z,34.60
2023-03-03T08:05:39.769Z,33.85
2023-03-03T08:08:21.832Z,34.70
2023-03-03T08:10:52.425Z,33.53
2023-03-03T08:13:43.110Z,32.88
2023-03-03T08:16:09.709Z,34.20
2023-03-03T08:18:48.103Z,34.90
2023-03-03T08:21:26.208Z,34.67
2023-03-03T08:23:53.758Z,33.80
2023-03-03T08:26:21.985Z,34.35
2023-03-03T08:28:49.074Z,34.38
2023-03-03T08:31:30.898Z,32.78
2023-03-03T08:34:04.509Z,32.13
2023-03-03T08:36:33.661Z,30.60
2023-03-03T08:39:01.296Z,30.25
2023-03-03T08:41:27.864Z,32.55
2023-03-03T08:43:54.514Z,31.45
2023-03-03T08:46:21.335Z,32.25
2023-03-03T08:48:48.060Z,32.83
2023-03-03T08:51:14.584Z,32.33
2023-03-03T08:53:41.627Z,33.63
2023-03-03T08:56:10.041Z,32.10
2023-03-03T08:58:36.862Z,31.75
2023-03-03T09:01:03.900Z,30.27
2023-03-03T09:03:30.692Z,29.23
2023-03-03T09:05:57.564Z,28.88
2023-03-03T09:08:24.197Z,29.45
2023-03-03T09:10:50.870Z,29.35
2023-03-03T09:13:19.352Z,27.50
2023-03-03T09:15:46.461Z,27.92
2023-03-03T09:18:24.659Z,29.92
2023-03-03T09:20:57.322Z,28.67
2023-03-03T09:23:23.914Z,28.48
2023-03-03T09:25:51.796Z,29.80
2023-03-03T09:28:30.076Z,29.27
2023-03-03T09:31:07.374Z,28.25
2023-03-03T09:33:46.054Z,28.08
2023-03-03T09:36:24.464Z,27.60
2023-03-03T09:38:51.332Z,25.85
2023-03-03T09:41:41.499Z,27.80
2023-03-03T09:44:08.041Z,26.77
2023-03-03T09:46:37.637Z,26.50
2023-03-03T09:49:31.247Z,27.05
2023-03-03T09:52:36.744Z,27.27
2023-03-03T09:55:12.171Z,28.50
2023-03-03T09:58:12.786Z,27.73
2023-03-03T10:01:04.405Z,27.77
2023-03-03T10:03:37.399Z,27.50
2023-03-03T10:06:22.728Z,25.73
2023-03-03T10:08:52.128Z,26.60
2023-03-03T10:11:31.798Z,26.90
2023-03-03T10:14:28.602Z,24.92
2023-03-03T10:17:07.649Z,25.38
2023-03-03T10:19:39.169Z,25.35
2023-03-03T10:22:24.367Z,25.75
2023-03-03T10:25:16.504Z,24.25
2023-03-03T10:28:18.647Z,23.65
2023-03-03T10:31:10.402Z,23.70
2023-03-03T10:34:08.369Z,22.10
2023-03-03T10:36:49.401Z,23.90
2023-03-03T10:39:28.275Z,22.98
2023-03-03T10:42:08.446Z,22.30
2023-03-03T10:44:53.117Z,21.63
2023-03-03T10:47:35.581Z,21.43
2023-03-03T10:50:12.435Z,21.48
2023-03-03T10:53:13.572Z,20.85
2023-03-03T10:55:58.992Z,20.65
2023-03-03T10:59:02.562Z,19.55
2023-03-03T11:01:50.898Z,18.73
2023-03-03T11:04:43.395Z,19.30
2023-03-03T11:07:31.343Z,18.00
2023-03-03T11:10:19.630Z,17.98
2023-03-03T11:13:20.062Z,18.17
2023-03-03T11:16:22.266Z,17.60
2023-03-03T11:19:11.382Z,17.92
2023-03-03T11:21:56.121Z,17.50
2023-03-03T11:24:52.083Z,16.93
2023-03-03T11:30:03.341Z,16.73
2023-03-03T11:32:40.100Z,16.65
2023-03-03T11:35:32.060Z,17.05
2023-03-03T11:38:36.241Z,17.70
2023-03-03T11:41:31.250Z,16.58
2023-03-03T11:44:08.644Z,16.92
2023-03-03T11:47:03.112Z,17.02
2023-03-03T11:50:00.487Z,17.02
2023-03-03T11:52:45.437Z,17.13
2023-03-03T11:55:23.868Z,16.60
2023-03-03T11:58:12.185Z,16.13
2023-03-03T12:01:04.683Z,16.33
2023-03-03T12:03:56.524Z,15.45
2023-03-03T12:06:43.731Z,14.82
2023-03-03T12:09:36.619Z,15.27
2023-03-03T12:12:11.886Z,14.55
2023-03-03T12:17:43.547Z,15.45
2023-03-03T12:20:22.167Z,14.88
2023-03-03T12:23:20.190Z,29.10
2023-03-03T12:26:04.384Z,14.40
2023-03-03T12:28:41.958Z,14.48
2023-03-03T12:32:04.067Z,14.60
2023-03-03T12:34:41.245Z,14.88
2023-03-03T12:37:49.432Z,18.30
2023-03-03T12:40:31.560Z,14.55
2023-03-03T12:43:18.139Z,16.90
2023-03-03T12:46:12.298Z,15.27
2023-03-03T12:48:42.967Z,14.80
2023-03-03T12:51:21.364Z,13.57
2023-03-03T12:54:28.854Z,14.40
2023-03-03T12:57:05.793Z,13.68
2023-03-03T12:59:56.522Z,13.82
2023-03-03T13:02:45.290Z,14.00
2023-03-03T13:05:27.002Z,14.48
2023-03-03T13:08:15.558Z,14.32
2023-03-03T13:11:00.043Z,13.57
2023-03-03T13:13:50.288Z,13.85
2023-03-03T13:16:40.349Z,13.35
2023-03-03T13:19:09.895Z,13.57
2023-03-03T13:22:02.939Z,14.30
2023-03-03T13:24:39.080Z,12.90
2023-03-03T13:27:20.183Z,12.88
2023-03-03T13:30:12.982Z,13.25
2023-03-03T13:33:11.306Z,13.82
2023-03-03T13:35:48.158Z,13.18
2023-03-03T13:38:22.186Z,13.32
2023-03-03T13:40:50.942Z,13.02
2023-03-03T13:43:22.533Z,14.23
2023-03-03T13:46:10.937Z,13.40
2023-03-03T13:48:55.870Z,12.88
2023-03-03T13:51:43.996Z,13.07
2023-03-03T13:54:25.615Z,13.43
2023-03-03T13:57:11.166Z,14.02
2023-03-03T13:59:46.841Z,13.38
2023-03-03T14:02:49.814Z,12.60
2023-03-03T14:05:41.319Z,12.38
2023-03-03T14:08:39.656Z,12.02
2023-03-03T14:11:16.840Z,12.00
2023-03-03T14:13:54.934Z,12.32
2023-03-03T14:16:21.654Z,11.93
2023-03-03T14:18:56.244Z,10.80
2023-03-03T14:21:52.640Z,11.40
2023-03-03T14:24:25.185Z,12.10
2023-03-03T14:26:53.101Z,11.82
2023-03-03T14:29:28.792Z,12.20
2023-03-03T14:31:56.265Z,11.38
2023-03-03T14:34:22.887Z,11.32
2023-03-03T14:36:53.914Z,11.27
2023-03-03T14:39:32.790Z,11.32
2023-03-03T14:42:00.511Z,11.50
2023-03-03T14:44:53.655Z,10.93
2023-03-03T14:47:25.061Z,11.10
2023-03-03T14:49:54.644Z,10.77
2023-03-03T14:52:29.122Z,11.18
2023-03-03T14:54:59.697Z,11.32
2023-03-03T14:57:35.879Z,11.80
2023-03-03T15:00:10.902Z,10.98
2023-03-03T15:02:51.608Z,11.48
2023-03-03T15:05:22.697Z,11.02
2023-03-03T15:07:53.433Z,11.90
2023-03-03T15:10:38.089Z,12.27
2023-03-03T15:13:19.973Z,12.07
2023-03-03T15:15:58.583Z,11.65
2023-03-03T15:18:26.313Z,11.38
2023-03-03T15:21:05.290Z,12.20
2023-03-03T15:23:41.187Z,11.60
2023-03-03T15:26:19.817Z,11.38
2023-03-03T15:28:54.242Z,10.98
2023-03-03T15:31:42.867Z,10.52
2023-03-03T15:34:43.934Z,13.23
2023-03-03T15:37:47.189Z,10.10
2023-03-03T15:40:27.394Z,11.18
2023-03-03T15:43:12.665Z,10.57
2023-03-03T15:45:49.871Z,11.02
2023-03-03T15:48:34.338Z,10.05
2023-03-03T15:51:24.587Z,9.90
2023-03-03T15:54:17.943Z,10.70
2023-03-03T15:56:59.790Z,9.85
2023-03-03T15:59:48.417Z,9.48
2023-03-03T16:02:33.947Z,10.30
2023-03-03T16:05:39.148Z,9.77
2023-03-03T16:08:24.838Z,9.93
2023-03-03T16:13:54.351Z,8.70
2023-03-03T16:16:45.652Z,9.50
2023-03-03T16:19:12.315Z,9.15
2023-03-03T16:22:04.624Z,9.00
2023-03-03T16:24:56.970Z,9.32
2023-03-03T16:27:32.365Z,9.27
2023-03-03T16:30:23.155Z,8.55
2023-03-03T16:33:14.517Z,8.57
2023-03-03T16:36:19.062Z,8.50
2023-03-03T16:38:56.872Z,7.82
2023-03-03T16:41:41.669Z,8.57
2023-03-03T16:44:37.412Z,7.77
2023-03-03T16:47:35.441Z,8.05
2023-03-03T16:50:23.308Z,7.75
2023-03-03T16:53:10.512Z,7.63
2023-03-03T16:55:51.954Z,7.32
2023-03-03T16:58:21.799Z,7.38
2023-03-03T17:01:05.701Z,7.40
2023-03-03T17:03:38.442Z,7.20
2023-03-03T17:06:48.377Z,7.35
2023-03-03T17:09:44.141Z,8.52
2023-03-03T17:12:32.752Z,8.50
2023-03-03T17:15:08.573Z,8.38
2023-03-03T17:17:58.152Z,9.05
2023-03-03T17:20:46.484Z,9.55
2023-03-03T17:23:21.326Z,8.85
2023-03-03T17:26:18.737Z,9.60
2023-03-03T17:29:23.589Z,9.35
2023-03-03T17:32:11.112Z,10.23
2023-03-03T17:35:00.011Z,10.07
2023-03-03T17:37:42.070Z,8.88
2023-03-03T17:40:23.119Z,9.73
2023-03-03T17:43:07.635Z,9.93
2023-03-03T17:45:42.678Z,10.43
2023-03-03T17:48:44.077Z,9.50
2023-03-03T17:51:55.591Z,10.27
2023-03-03T17:54:28.406Z,10.40
2023-03-03T17:56:54.994Z,10.10
2023-03-03T18:00:01.485Z,10.38
2023-03-03T18:02:39.624Z,10.20
2023-03-03T18:05:26.780Z,10.90
2023-03-03T18:12:38.058Z,10.35
2023-03-03T18:15:10.828Z,10.43
2023-03-03T18:17:53.711Z,11.40
2023-03-03T18:20:55.312Z,11.70
2023-03-03T18:23:41.951Z,10.10
2023-03-03T18:26:33.562Z,9.70
2023-03-03T18:29:20.054Z,9.90
2023-03-03T18:31:48.133Z,10.23
2023-03-03T18:34:20.632Z,9.90
2023-03-03T18:37:00.759Z,10.07
2023-03-03T18:40:02.620Z,10.00
2023-03-03T18:42:48.744Z,10.55
2023-03-03T18:45:18.154Z,10.90
2023-03-03T18:48:03.248Z,11.25
2023-03-03T18:50:35.695Z,12.35
2023-03-03T18:53:17.724Z,11.60
2023-03-03T18:55:45.852Z,10.75
2023-03-03T18:58:15.488Z,10.77
2023-03-03T19:00:50.488Z,11.52
2023-03-03T19:03:28.295Z,11.98
2023-03-03T19:05:57.897Z,11.57
2023-03-03T19:08:27.061Z,11.68
2023-03-03T19:11:05.119Z,11.48
2023-03-03T19:13:34.938Z,11.50
2023-03-03T19:16:21.834Z,10.93
2023-03-03T19:19:00.791Z,11.48
2023-03-03T19:21:36.303Z,10.90
2023-03-03T19:24:04.403Z,11.50
2023-03-03T19:26:47.511Z,11.52
2023-03-03T19:29:22.402Z,12.35
2023-03-03T19:32:00.264Z,11.30
2023-03-03T19:34:42.608Z,12.00
2023-03-03T19:37:34.992Z,11.55
2023-03-03T19:40:21.941Z,12.52
2023-03-03T19:43:12.590Z,13.02
2023-03-03T19:46:01.030Z,12.23
2023-03-03T19:48:48.405Z,10.88
2023-03-03T19:51:52.722Z,11.55
2023-03-03T19:54:45.747Z,10.60
2023-03-03T19:57:40.497Z,12.13
2023-03-03T20:00:42.457Z,13.05
2023-03-03T20:03:33.979Z,12.45
2023-03-03T20:06:12.709Z,13.43
2023-03-03T20:09:12.289Z,12.73
2023-03-03T20:12:07.443Z,11.85
2023-03-03T20:14:46.013Z,10.68
2023-03-03T20:17:32.720Z,11.10
2023-03-03T20:20:17.984Z,12.07
2023-03-03T20:23:05.410Z,11.52
2023-03-03T20:25:45.680Z,11.85
2023-03-03T20:28:27.290Z,11.75
2023-03-03T20:31:33.453Z,10.85
2023-03-03T20:34:42.086Z,10.93
2023-03-03T20:37:31.853Z,11.68
2023-03-03T20:40:27.498Z,11.45
2023-03-03T20:43:07.464Z,11.18
2023-03-03T20:45:58.580Z,10.70
2023-03-03T20:48:40.160Z,11.43
2023-03-03T20:51:17.586Z,11.38
2023-03-03T20:54:03.008Z,11.65
2023-03-03T20:56:53.357Z,11.70
2023-03-03T20:59:36.224Z,12.43
2023-03-03T21:02:19.594Z,10.57
2023-03-03T21:04:46.220Z,11.55
2023-03-03T21:07:26.452Z,11.95
2023-03-03T21:10:12.395Z,10.68
2023-03-03T21:12:38.921Z,11.77
2023-03-03T21:15:20.871Z,11.18
2023-03-03T21:17:47.473Z,11.52
2023-03-03T21:20:43.478Z,11.20
2023-03-03T21:23:11.735Z,11.48
2023-03-03T21:25:41.158Z,11.30
2023-03-03T21:28:19.981Z,12.02
2023-03-03T21:31:05.466Z,11.98
2023-03-03T21:36:08.756Z,12.35
2023-03-03T21:38:37.644Z,12.85
2023-03-03T21:41:05.276Z,12.57
2023-03-03T21:43:45.449Z,12.60
2023-03-03T21:46:12.979Z,12.38
2023-03-03T21:48:42.842Z,12.32
2023-03-03T21:51:10.720Z,11.73
2023-03-03T21:53:37.389Z,11.75
2023-03-03T21:56:04.262Z,12.10
2023-03-03T21:58:30.846Z,11.82
2023-03-03T22:00:57.573Z,11.90
2023-03-03T22:03:24.226Z,12.50
2023-03-03T22:05:50.802Z,13.27
2023-03-03T22:08:22.410Z,12.30
2023-03-03T22:10:55.958Z,13.27
2023-03-03T22:13:24.219Z,13.15
2023-03-03T22:15:51.014Z,12.60
2023-03-03T22:18:19.104Z,13.35
2023-03-03T22:20:46.833Z,12.48
2023-03-03T22:23:14.687Z,13.23
2023-03-03T22:25:41.824Z,13.57
2023-03-03T22:28:08.964Z,12.43
2023-03-03T22:30:36.693Z,13.35
2023-03-03T22:33:03.653Z,13.75
2023-03-03T22:35:30.597Z,13.02
2023-03-03T22:37:57.599Z,14.13
2023-03-03T22:40:24.192Z,13.15
2023-03-03T22:42:50.975Z,13.57
2023-03-03T22:45:17.683Z,13.57
2023-03-03T22:47:44.346Z,13.40
2023-03-03T22:50:11.477Z,13.07
2023-03-03T22:52:38.209Z,14.32
2023-03-03T22:55:05.493Z,13.63
2023-03-03T22:57:32.040Z,13.48
2023-03-03T22:59:59.960Z,14.32
2023-03-03T23:02:26.651Z,15.10
2023-03-03T23:04:58.021Z,17.70
2023-03-03T23:07:26.243Z,15.23
2023-03-03T23:09:52.916Z,15.85
2023-03-03T23:12:19.559Z,14.80
2023-03-03T23:14:46.104Z,14.32
2023-03-03T23:17:12.673Z,14.75
2023-03-03T23:19:39.334Z,14.45
2023-03-03T23:22:05.967Z,13.88
2023-03-03T23:24:33.155Z,14.00
2023-03-03T23:27:00.656Z,14.75
2023-03-03T23:29:27.321Z,14.65
2023-03-03T23:31:53.881Z,14.73
2023-03-03T23:34:20.476Z,13.65
2023-03-03T23:36:47.075Z,14.98
2023-03-03T23:39:13.733Z,14.93
2023-03-03T23:41:40.772Z,15.35
2023-03-03T23:44:07.299Z,15.23
2023-03-03T23:46:33.901Z,15.02
2023-03-03T23:49:01.931Z,14.23
2023-03-03T23:51:28.485Z,15.18
2023-03-03T23:53:55.191Z,14.85
2023-03-03T23:56:21.846Z,14.43
2023-03-03T23:58:48.462Z,15.48
